Time,TemperatureF,DewpointF,PressureIn,WindDirection,WindDirectionDegrees,WindSpeedMPH,WindSpeedGustMPH,Humidity,HourlyPrecipIn,Conditions,Clouds,dailyrainin,SoftwareType,DateUTC
2013-01-24 00:03:00,7.0,-99.9,-100.00,NNW,339,26.0,31.0,-999,0.00,,,-99.99,,2013-01-24 06:03:00,
2013-01-24 00:12:00,7.0,-99.9,-100.00,NNW,339,26.0,31.0,-999,0.00,,,-99.99,,2013-01-24 06:12:00,
2013-01-24 00:22:00,7.0,-99.9,-100.00,NNW,339,26.0,31.0,-999,0.00,,,-99.99,,2013-01-24 06:22:00,
2013-01-24 00:53:00,6.0,-99.9,-100.00,North,0,0.0,0.0,-999,0.00,,,-99.99,,2013-01-24 06:53:00,
2013-01-24 01:03:00,6.0,-99.9,-100.00,North,0,0.0,0.0,-999,0.00,,,-99.99,,2013-01-24 07:03:00,
2013-01-24 01:13:00,6.0,-99.9,-100.00,North,0,0.0,0.0,-999,0.00,,,-99.99,,2013-01-24 07:13:00,
2013-01-24 01:23:00,6.0,-99.9,-100.00,NNW,346,24.0,29.0,-999,0.00,,,-99.99,,2013-01-24 07:23:00,
2013-01-24 01:34:00,6.0,-99.9,-100.00,NNW,346,24.0,29.0,-999,0.00,,,-99.99,,2013-01-24 07:34:00,
2013-01-24 01:43:00,6.0,-99.9,-100.00,NNW,346,24.0,29.0,-999,0.00,,,-99.99,,2013-01-24 07:43:00,
2013-01-24 01:53:00,5.0,-99.9,-100.00,North,356,23.0,27.0,-999,0.00,,,-99.99,,2013-01-24 07:53:00,
2013-01-24 02:03:00,5.0,-99.9,-100.00,North,356,23.0,27.0,-999,0.00,,,-99.99,,2013-01-24 08:03:00,
2013-01-24 02:13:00,5.0,-99.9,-100.00,North,356,23.0,27.0,-999,0.00,,,-99.99,,2013-01-24 08:13:00,
2013-01-24 02:23:00,5.0,-99.9,-100.00,NNW,347,22.0,28.0,-999,0.00,,,-99.99,,2013-01-24 08:23:00,
2013-01-24 02:33:00,6.0,-99.9,-100.00,North,350,22.0,25.0,-999,0.00,,,-99.99,,2013-01-24 08:33:00,
2013-01-24 02:43:00,6.0,-99.9,-100.00,North,350,22.0,25.0,-999,0.00,,,-99.99,,2013-01-24 08:43:00,
2013-01-24 02:53:00,6.0,-99.9,-100.00,North,350,22.0,25.0,-999,0.00,,,-99.99,,2013-01-24 08:53:00,
2013-01-24 03:03:00,5.0,-99.9,-100.00,North,353,20.0,23.0,-999,0.00,,,-99.99,,2013-01-24 09:03:00,
2013-01-24 03:13:00,5.0,-99.9,-100.00,North,353,20.0,23.0,-999,0.00,,,-99.99,,2013-01-24 09:13:00,
2013-01-24 03:23:00,5.0,-99.9,-100.00,North,353,20.0,23.0,-999,0.00,,,-99.99,,2013-01-24 09:23:00,
2013-01-24 03:34:00,4.0,-99.9,-100.00,NNW,336,20.0,24.0,-999,0.00,,,-99.99,,2013-01-24 09:34:00,
2013-01-24 03:43:00,4.0,-99.9,-100.00,NNW,336,20.0,24.0,-999,0.00,,,-99.99,,2013-01-24 09:43:00,
2013-01-24 03:54:00,4.0,-99.9,-100.00,NNW,343,21.0,24.0,-999,0.00,,,-99.99,,2013-01-24 09:54:00,
2013-01-24 04:03:00,4.0,-99.9,-100.00,NNW,343,21.0,24.0,-999,0.00,,,-99.99,,2013-01-24 10:03:00,
2013-01-24 04:13:00,4.0,-99.9,-100.00,NNW,343,21.0,24.0,-999,0.00,,,-99.99,,2013-01-24 10:13:00,
2013-01-24 04:23:00,5.0,-99.9,-100.00,North,354,21.0,25.0,-999,0.00,,,-99.99,,2013-01-24 10:23:00,
2013-01-24 04:34:00,4.0,-99.9,-100.00,NNW,338,18.0,23.0,-999,0.00,,,-99.99,,2013-01-24 10:34:00,
2013-01-24 04:44:00,4.0,-99.9,-100.00,NNW,338,18.0,23.0,-999,0.00,,,-99.99,,2013-01-24 10:44:00,
2013-01-24 04:53:00,4.0,-99.9,-100.00,NNW,338,18.0,23.0,-999,0.00,,,-99.99,,2013-01-24 10:53:00,
2013-01-24 05:03:00,4.0,-99.9,-100.00,NNW,338,18.0,23.0,-999,0.00,,,-99.99,,2013-01-24 11:03:00,
2013-01-24 05:13:00,4.0,-99.9,-100.00,NNW,338,18.0,23.0,-999,0.00,,,-99.99,,2013-01-24 11:13:00,
2013-01-24 06:33:00,4.0,-99.9,-100.00,North,0,0.0,0.0,-999,0.00,,,-99.99,,2013-01-24 12:33:00,
2013-01-24 06:43:00,4.0,-99.9,-100.00,North,0,0.0,0.0,-999,0.00,,,-99.99,,2013-01-24 12:43:00,
2013-01-24 06:53:00,4.0,-99.9,-100.00,North,0,0.0,0.0,-999,0.00,,,-99.99,,2013-01-24 12:53:00,
2013-01-24 07:03:00,4.0,-99.9,-100.00,North,0,0.0,0.0,-999,0.00,,,-99.99,,2013-01-24 13:03:00,
2013-01-24 07:13:00,4.0,-99.9,-100.00,North,0,0.0,0.0,-999,0.00,,,-99.99,,2013-01-24 13:13:00,
2013-01-24 07:33:00,4.0,-99.9,-100.00,North,0,0.0,0.0,-999,0.00,,,-99.99,,2013-01-24 13:33:00,
2013-01-24 07:53:00,4.0,-99.9,-100.00,North,0,0.0,0.0,-999,0.00,,,-99.99,,2013-01-24 13:53:00,
2013-01-24 08:03:00,4.0,-99.9,-100.00,North,0,0.0,0.0,-999,0.00,,,-99.99,,2013-01-24 14:03:00,
2013-01-24 08:13:00,4.0,-99.9,-100.00,North,0,0.0,0.0,-999,0.00,,,-99.99,,2013-01-24 14:13:00,
2013-01-24 08:23:00,4.0,-99.9,-100.00,North,0,0.0,0.0,-999,0.00,,,-99.99,,2013-01-24 14:23:00,
2013-01-24 08:33:00,8.0,-99.9,-100.00,North,0,0.0,0.0,-999,0.00,,,-99.99,,2013-01-24 14:33:00,
2013-01-24 08:54:00,8.0,-99.9,-100.00,North,0,0.0,0.0,-999,0.00,,,-99.99,,2013-01-24 14:54:00,
2013-01-24 09:04:00,8.0,-99.9,-100.00,North,0,0.0,0.0,-999,0.00,,,-99.99,,2013-01-24 15:04:00,
2013-01-24 09:13:00,8.0,-99.9,-100.00,North,0,0.0,0.0,-999,0.00,,,-99.99,,2013-01-24 15:13:00,
2013-01-24 09:23:00,8.0,-99.9,-100.00,North,0,0.0,0.0,-999,0.00,,,-99.99,,2013-01-24 15:23:00,
2013-01-24 09:53:00,9.0,-99.9,-100.00,North,0,0.0,0.0,-999,0.00,,,-99.99,,2013-01-24 15:53:00,
2013-01-24 10:04:00,9.0,-99.9,-100.00,North,0,0.0,0.0,-999,0.00,,,-99.99,,2013-01-24 16:04:00,
2013-01-24 10:12:00,9.0,-99.9,-100.00,North,0,0.0,0.0,-999,0.00,,,-99.99,,2013-01-24 16:12:00,
2013-01-24 10:23:00,9.0,-99.9,-100.00,North,0,0.0,0.0,-999,0.00,,,-99.99,,2013-01-24 16:23:00,
2013-01-24 10:34:00,12.0,-99.9,-100.00,North,0,0.0,0.0,-999,0.00,,,-99.99,,2013-01-24 16:34:00,
2013-01-24 10:43:00,12.0,-99.9,-100.00,North,0,0.0,0.0,-999,0.00,,,-99.99,,2013-01-24 16:43:00,
2013-01-24 11:03:00,12.0,-99.9,-100.00,North,0,0.0,0.0,-999,0.00,,,-99.99,,2013-01-24 17:03:00,
2013-01-24 11:12:00,12.0,-99.9,-100.00,North,0,0.0,0.0,-999,0.00,,,-99.99,,2013-01-24 17:12:00,
2013-01-24 11:33:00,15.0,-99.9,-100.00,North,0,0.0,0.0,-999,0.00,,,-99.99,,2013-01-24 17:33:00,
2013-01-24 11:43:00,15.0,-99.9,-100.00,North,0,0.0,0.0,-999,0.00,,,-99.99,,2013-01-24 17:43:00,
2013-01-24 11:53:00,15.0,-99.9,-100.00,North,0,0.0,0.0,-999,0.00,,,-99.99,,2013-01-24 17:53:00,
2013-01-24 12:03:00,16.0,-99.9,-100.00,North,0,0.0,0.0,-999,0.00,,,-99.99,,2013-01-24 18:03:00,
2013-01-24 12:13:00,16.0,-99.9,-100.00,North,0,0.0,0.0,-999,0.00,,,-99.99,,2013-01-24 18:13:00,
2013-01-24 12:23:00,16.0,-99.9,-100.00,North,0,0.0,0.0,-999,0.00,,,-99.99,,2013-01-24 18:23:00,
2013-01-24 12:33:00,16.0,-99.9,-100.00,North,0,0.0,0.0,-999,0.00,,,-99.99,,2013-01-24 18:33:00,
2013-01-24 12:43:00,16.0,-99.9,-100.00,North,0,0.0,0.0,-999,0.00,,,-99.99,,2013-01-24 18:43:00,
2013-01-24 12:54:00,18.0,-99.9,-100.00,North,0,0.0,0.0,-999,0.00,,,-99.99,,2013-01-24 18:54:00,
2013-01-24 13:03:00,18.0,-99.9,-100.00,North,0,0.0,0.0,-999,0.00,,,-99.99,,2013-01-24 19:03:00,
2013-01-24 13:13:00,18.0,-99.9,-100.00,North,0,0.0,0.0,-999,0.00,,,-99.99,,2013-01-24 19:13:00,
2013-01-24 13:22:00,18.0,-99.9,-100.00,North,0,0.0,0.0,-999,0.00,,,-99.99,,2013-01-24 19:22:00,
2013-01-24 13:42:00,19.0,-99.9,-100.00,North,0,0.0,0.0,-999,0.00,,,-99.99,,2013-01-24 19:42:00,
2013-01-24 13:53:00,19.0,-99.9,-100.00,North,0,0.0,0.0,-999,0.00,,,-99.99,,2013-01-24 19:53:00,
2013-01-24 14:03:00,19.0,-99.9,-100.00,North,0,0.0,0.0,-999,0.00,,,-99.99,,2013-01-24 20:03:00,
2013-01-24 14:12:00,19.0,-99.9,-100.00,North,0,0.0,0.0,-999,0.00,,,-99.99,,2013-01-24 20:12:00,
2013-01-24 14:23:00,19.0,-99.9,-100.00,North,0,0.0,0.0,-999,0.00,,,-99.99,,2013-01-24 20:23:00,
2013-01-24 14:33:00,14.0,-99.9,-100.00,North,0,0.0,0.0,-999,0.00,,,-99.99,,2013-01-24 20:33:00,
2013-01-24 14:43:00,14.0,-99.9,-100.00,North,0,0.0,0.0,-999,0.00,,,-99.99,,2013-01-24 20:43:00,
2013-01-24 14:53:00,14.0,-99.9,-100.00,North,0,0.0,0.0,-999,0.00,,,-99.99,,2013-01-24 20:53:00,
2013-01-24 15:03:00,15.0,-99.9,-100.00,North,0,0.0,0.0,-999,0.00,,,-99.99,,2013-01-24 21:03:00,
2013-01-24 15:13:00,15.0,-99.9,-100.00,North,0,0.0,0.0,-999,0.00,,,-99.99,,2013-01-24 21:13:00,
2013-01-24 15:23:00,15.0,-99.9,-100.00,North,0,0.0,0.0,-999,0.00,,,-99.99,,2013-01-24 21:23:00,
2013-01-24 15:33:00,15.0,-99.9,-100.00,North,0,0.0,0.0,-999,0.00,,,-99.99,,2013-01-24 21:33:00,
2013-01-24 15:44:00,15.0,-99.9,-100.00,North,0,0.0,0.0,-999,0.00,,,-99.99,,2013-01-24 21:44:00,
2013-01-24 15:53:00,12.0,-99.9,-100.00,North,0,0.0,0.0,-999,0.00,,,-99.99,,2013-01-24 21:53:00,
2013-01-24 16:03:00,12.0,-99.9,-100.00,North,0,0.0,0.0,-999,0.00,,,-99.99,,2013-01-24 22:03:00,
2013-01-24 16:12:00,12.0,-99.9,-100.00,North,0,0.0,0.0,-999,0.00,,,-99.99,,2013-01-24 22:12:00,
2013-01-24 16:23:00,12.0,-99.9,-100.00,North,0,0.0,0.0,-999,0.00,,,-99.99,,2013-01-24 22:23:00,
2013-01-24 16:33:00,11.0,-99.9,-100.00,North,0,0.0,0.0,-999,0.00,,,-99.99,,2013-01-24 22:33:00,
2013-01-24 16:43:00,11.0,-99.9,-100.00,North,0,0.0,0.0,-999,0.00,,,-99.99,,2013-01-24 22:43:00,
2013-01-24 16:53:00,11.0,-99.9,-100.00,North,0,0.0,0.0,-999,0.00,,,-99.99,,2013-01-24 22:53:00,
2013-01-24 17:03:00,10.0,-99.9,-100.00,North,0,0.0,0.0,-999,0.00,,,-99.99,,2013-01-24 23:03:00,
2013-01-24 17:13:00,10.0,-99.9,-100.00,North,0,0.0,0.0,-999,0.00,,,-99.99,,2013-01-24 23:13:00,
2013-01-24 17:22:00,11.0,-99.9,-100.00,North,0,0.0,0.0,-999,0.00,,,-99.99,,2013-01-24 23:22:00,
2013-01-24 17:33:00,11.0,-99.9,-100.00,North,0,0.0,0.0,-999,0.00,,,-99.99,,2013-01-24 23:33:00,
2013-01-24 17:43:00,11.0,-99.9,-100.00,North,0,0.0,0.0,-999,0.00,,,-99.99,,2013-01-24 23:43:00,
2013-01-24 17:53:00,11.0,-99.9,-100.00,North,0,0.0,0.0,-999,0.00,,,-99.99,,2013-01-24 23:53:00,
2013-01-24 18:02:00,11.0,-99.9,-100.00,North,0,0.0,0.0,-999,0.00,,,-99.99,,2013-01-25 00:02:00,
2013-01-24 18:32:00,11.0,-99.9,-100.00,North,0,0.0,0.0,-999,0.00,,,-99.99,,2013-01-25 00:32:00,
2013-01-24 18:42:00,11.0,-99.9,-100.00,North,0,0.0,0.0,-999,0.00,,,-99.99,,2013-01-25 00:42:00,
2013-01-24 18:53:00,11.0,-99.9,-100.00,North,0,0.0,0.0,-999,0.00,,,-99.99,,2013-01-25 00:53:00,
2013-01-24 19:02:00,11.0,-99.9,-100.00,North,0,0.0,0.0,-999,0.00,,,-99.99,,2013-01-25 01:02:00,
2013-01-24 19:13:00,11.0,-99.9,-100.00,North,0,0.0,0.0,-999,0.00,,,-99.99,,2013-01-25 01:13:00,
2013-01-24 19:22:00,11.0,-99.9,-100.00,North,0,0.0,0.0,-999,0.00,,,-99.99,,2013-01-25 01:22:00,
2013-01-24 19:33:00,11.0,-99.9,-100.00,North,0,0.0,0.0,-999,0.00,,,-99.99,,2013-01-25 01:33:00,
2013-01-24 19:43:00,11.0,-99.9,-100.00,North,0,0.0,0.0,-999,0.00,,,-99.99,,2013-01-25 01:43:00,
2013-01-24 19:52:00,11.0,-99.9,-100.00,North,0,0.0,0.0,-999,0.00,,,-99.99,,2013-01-25 01:52:00,
2013-01-24 20:03:00,11.0,-99.9,-100.00,North,0,0.0,0.0,-999,0.00,,,-99.99,,2013-01-25 02:03:00,
2013-01-24 20:12:00,11.0,-99.9,-100.00,North,0,0.0,0.0,-999,0.00,,,-99.99,,2013-01-25 02:12:00,
2013-01-24 20:22:00,11.0,-99.9,-100.00,North,0,0.0,0.0,-999,0.00,,,-99.99,,2013-01-25 02:22:00,
2013-01-24 20:33:00,12.0,-99.9,-100.00,North,0,0.0,0.0,-999,0.00,,,-99.99,,2013-01-25 02:33:00,
2013-01-24 20:43:00,11.0,-99.9,-100.00,North,0,0.0,0.0,-999,0.00,,,-99.99,,2013-01-25 02:43:00,
2013-01-24 20:53:00,11.0,-99.9,-100.00,North,0,0.0,0.0,-999,0.00,,,-99.99,,2013-01-25 02:53:00,
2013-01-24 21:02:00,11.0,-99.9,-100.00,North,0,0.0,0.0,-999,0.00,,,-99.99,,2013-01-25 03:02:00,
2013-01-24 21:12:00,11.0,-99.9,-100.00,North,0,0.0,0.0,-999,0.00,,,-99.99,,2013-01-25 03:12:00,
2013-01-24 21:22:00,11.0,-99.9,-100.00,North,0,0.0,0.0,-999,0.00,,,-99.99,,2013-01-25 03:22:00,
2013-01-24 21:33:00,12.0,-99.9,-100.00,North,0,0.0,0.0,-999,0.00,,,-99.99,,2013-01-25 03:33:00,
2013-01-24 21:42:00,12.0,-99.9,-100.00,North,0,0.0,0.0,-999,0.00,,,-99.99,,2013-01-25 03:42:00,
2013-01-24 21:53:00,12.0,-99.9,-100.00,North,0,0.0,0.0,-999,0.00,,,-99.99,,2013-01-25 03:53:00,
2013-01-24 22:02:00,13.0,-99.9,-100.00,North,0,0.0,0.0,-999,0.00,,,-99.99,,2013-01-25 04:02:00,
2013-01-24 22:12:00,12.0,-99.9,-100.00,North,0,0.0,0.0,-999,0.00,,,-99.99,,2013-01-25 04:12:00,
2013-01-24 22:23:00,12.0,-99.9,-100.00,North,0,0.0,0.0,-999,0.00,,,-99.99,,2013-01-25 04:23:00,
2013-01-24 22:32:00,13.0,-99.9,-100.00,North,0,0.0,0.0,-999,0.00,,,-99.99,,2013-01-25 04:32:00,
2013-01-24 22:42:00,13.0,-99.9,-100.00,North,0,0.0,0.0,-999,0.00,,,-99.99,,2013-01-25 04:42:00,
2013-01-24 22:52:00,13.0,-99.9,-100.00,North,0,0.0,0.0,-999,0.00,,,-99.99,,2013-01-25 04:52:00,
2013-01-24 23:04:00,13.0,-99.9,-100.00,North,0,0.0,0.0,-999,0.00,,,-99.99,,2013-01-25 05:04:00,
2013-01-24 23:12:00,13.0,-99.9,-100.00,North,0,0.0,0.0,-999,0.00,,,-99.99,,2013-01-25 05:12:00,
2013-01-24 23:22:00,13.0,-99.9,-100.00,North,0,0.0,0.0,-999,0.00,,,-99.99,,2013-01-25 05:22:00,
2013-01-24 23:32:00,13.0,-99.9,-100.00,North,0,0.0,0.0,-999,0.00,,,-99.99,,2013-01-25 05:32:00,
2013-01-24 23:43:00,13.0,-99.9,-100.00,North,0,0.0,0.0,-999,0.00,,,-99.99,,2013-01-25 05:43:00,
2013-01-24 23:52:00,13.0,-99.9,-100.00,North,0,0.0,0.0,-999,0.00,,,-99.99,,2013-01-25 05:52:00,